Time;durP1;ratioP1;P1;durP2;ratioP2;P2;SDS_P1;SDS_P2;PMS_P1;PMS_P2;Temp;Humidity;BMP_temperature;BMP_pressure;BME280_temperature;BME280_humidity;BME280_pressure;Samples;Min_cycle;Max_cycle;Signal;HPM_P1;HPM_P2
2021/06/12 00:00:08;;;;;;;19.55;6.55;;;;;;;;;;5021017;28;20041;-53
2021/06/12 00:02:36;;;;;;;26.48;7.60;;;;;;;;;;5020167;28;21197;-54
2021/06/12 00:05:05;;;;;;;19.20;7.25;;;;;;;;;;5023332;28;20053;-51
2021/06/12 00:07:32;;;;;;;19.27;7.47;;;;;;;;;;5031192;28;20037;-54
2021/06/12 00:09:58;;;;;;;17.17;6.70;;;;;;;;;;5020331;28;20060;-54
2021/06/12 00:12:25;;;;;;;23.53;6.50;;;;;;;;;;5028002;28;20450;-55
2021/06/12 00:14:52;;;;;;;24.92;6.93;;;;;;;;;;5021066;28;20291;-53
2021/06/12 00:17:19;;;;;;;18.47;6.93;;;;;;;;;;5022550;28;20123;-52
2021/06/12 00:19:47;;;;;;;26.48;6.88;;;;;;;;;;5026459;28;20045;-50
2021/06/12 00:22:14;;;;;;;25.88;6.43;;;;;;;;;;5026869;28;20083;-53
2021/06/12 00:24:41;;;;;;;16.75;6.28;;;;;;;;;;5027837;28;20042;-55
2021/06/12 00:27:09;;;;;;;22.88;7.38;;;;;;;;;;5027814;28;20065;-54
2021/06/12 00:29:36;;;;;;;24.88;6.78;;;;;;;;;;5022651;28;20041;-54
2021/06/12 00:32:02;;;;;;;24.55;7.32;;;;;;;;;;5021179;28;20054;-56
2021/06/12 00:34:29;;;;;;;26.33;7.10;;;;;;;;;;5020624;28;20033;-55
2021/06/12 00:37:01;;;;;;;25.48;8.07;;;;;;;;;;5019538;28;20301;-54
2021/06/12 00:39:27;;;;;;;30.60;6.90;;;;;;;;;;5026052;28;20046;-55
2021/06/12 00:41:55;;;;;;;29.52;7.30;;;;;;;;;;5018907;28;20037;-54
2021/06/12 00:44:22;;;;;;;28.90;7.70;;;;;;;;;;5018258;28;20481;-54
2021/06/12 00:46:51;;;;;;;25.10;6.88;;;;;;;;;;5020344;28;20077;-55
2021/06/12 00:49:20;;;;;;;;;;;;;;;;;;5023711;28;20525;-55
2021/06/12 00:51:48;;;;;;;28.75;7.13;;;;;;;;;;5019682;28;19971;-54
2021/06/12 00:54:14;;;;;;;27.73;7.25;;;;;;;;;;5018487;28;20050;-56
2021/06/12 00:56:43;;;;;;;29.55;7.18;;;;;;;;;;5021676;28;20084;-54
2021/06/12 00:59:09;;;;;;;30.67;6.97;;;;;;;;;;5024547;28;20037;-53
2021/06/12 01:01:48;;;;;;;35.78;8.18;;;;;;;;;;5022015;28;20038;-55
2021/06/12 01:04:15;;;;;;;30.77;7.75;;;;;;;;;;5024302;28;20041;-55
2021/06/12 01:06:50;;;;;;;35.83;8.23;;;;;;;;;;5020916;28;20516;-52
2021/06/12 01:09:23;;;;;;;29.38;7.55;;;;;;;;;;5020866;28;20509;-55
2021/06/12 01:12:11;;;;;;;29.75;7.75;;;;;;;;;;5026426;28;20033;-55
2021/06/12 01:14:44;;;;;;;39.15;8.45;;;;;;;;;;5021376;28;20041;-53
2021/06/12 01:17:33;;;;;;;44.85;8.18;;;;;;;;;;5025214;28;20390;-49
2021/06/12 01:20:04;;;;;;;29.05;7.28;;;;;;;;;;5021979;28;20038;-50
2021/06/12 01:22:45;;;;;;;35.85;7.63;;;;;;;;;;5026730;28;20418;-52
2021/06/12 01:25:31;;;;;;;27.88;7.28;;;;;;;;;;5025965;28;20038;-55
2021/06/12 01:27:57;;;;;;;32.83;7.80;;;;;;;;;;5023057;28;20038;-53
2021/06/12 01:30:26;;;;;;;27.65;7.20;;;;;;;;;;5026094;28;20041;-55
2021/06/12 01:33:07;;;;;;;37.38;7.22;;;;;;;;;;5023386;28;20042;-54
2021/06/12 01:35:35;;;;;;;31.88;6.30;;;;;;;;;;5023239;28;20041;-51
2021/06/12 01:38:04;;;;;;;27.85;6.25;;;;;;;;;;5020656;28;20053;-52
2021/06/12 01:40:32;;;;;;;20.80;6.55;;;;;;;;;;5021638;28;20038;-53
2021/06/12 01:43:01;;;;;;;20.45;5.63;;;;;;;;;;5022555;28;20037;-54
2021/06/12 01:45:29;;;;;;;26.95;6.13;;;;;;;;;;5025779;28;20504;-51
2021/06/12 01:47:56;;;;;;;20.77;5.95;;;;;;;;;;5027018;28;20038;-55
2021/06/12 01:50:24;;;;;;;20.92;5.85;;;;;;;;;;5024650;28;20072;-54
2021/06/12 01:52:51;;;;;;;;;;;;;;;;;;5021220;28;20081;-56
2021/06/12 01:55:19;;;;;;;26.02;6.72;;;;;;;;;;5022254;28;19971;-50
2021/06/12 01:57:47;;;;;;;29.13;5.90;;;;;;;;;;5022959;28;20080;-54
2021/06/12 02:00:15;;;;;;;31.50;6.63;;;;;;;;;;5022846;28;20041;-51
2021/06/12 02:02:43;;;;;;;16.52;5.65;;;;;;;;;;5016822;28;20045;-50
2021/06/12 02:05:14;;;;;;;25.98;6.22;;;;;;;;;;5023052;28;20034;-50
2021/06/12 02:07:42;;;;;;;30.98;6.05;;;;;;;;;;5019443;28;20049;-53
2021/06/12 02:10:16;;;;;;;25.90;6.63;;;;;;;;;;5024613;28;20041;-53
2021/06/12 02:12:43;;;;;;;20.15;6.00;;;;;;;;;;5021883;28;20048;-55
2021/06/12 02:15:12;;;;;;;30.10;6.57;;;;;;;;;;5019818;28;20511;-50
2021/06/12 02:17:40;;;;;;;20.67;6.78;;;;;;;;;;5022264;28;20046;-55
2021/06/12 02:20:08;;;;;;;26.38;6.70;;;;;;;;;;5027070;28;20041;-53
2021/06/12 02:22:36;;;;;;;19.10;5.90;;;;;;;;;;5023408;28;20095;-52
2021/06/12 02:25:05;;;;;;;24.45;6.45;;;;;;;;;;5024425;28;20034;-53
2021/06/12 02:27:32;;;;;;;24.58;6.53;;;;;;;;;;5022911;28;20037;-53
2021/06/12 02:30:00;;;;;;;23.63;6.70;;;;;;;;;;5020406;28;20404;-51
2021/06/12 02:32:28;;;;;;;32.60;6.68;;;;;;;;;;5024900;28;20242;-53
2021/06/12 02:34:55;;;;;;;23.70;6.10;;;;;;;;;;5020860;28;20045;-52
2021/06/12 02:37:23;;;;;;;21.33;5.57;;;;;;;;;;5021923;28;20042;-52
2021/06/12 02:39:50;;;;;;;30.90;5.90;;;;;;;;;;5021467;28;20042;-51
2021/06/12 02:42:16;;;;;;;24.35;4.95;;;;;;;;;;5017029;28;20288;-53
2021/06/12 02:44:43;;;;;;;24.83;5.77;;;;;;;;;;5021092;28;20041;-52
2021/06/12 02:47:11;;;;;;;28.45;5.60;;;;;;;;;;5019275;28;20124;-56
2021/06/12 02:49:39;;;;;;;20.25;5.38;;;;;;;;;;5025787;28;20042;-55
2021/06/12 02:52:11;;;;;;;25.27;5.35;;;;;;;;;;5025415;28;20042;-55
2021/06/12 02:54:38;;;;;;;19.42;4.97;;;;;;;;;;5027077;28;20057;-56
2021/06/12 02:57:05;;;;;;;22.38;5.30;;;;;;;;;;5029575;28;20049;-55
2021/06/12 02:59:32;;;;;;;22.35;4.82;;;;;;;;;;5026027;28;20061;-53
2021/06/12 03:01:59;;;;;;;24.13;5.63;;;;;;;;;;5029603;28;20047;-51
2021/06/12 03:04:26;;;;;;;;;;;;;;;;;;5020561;28;20046;-53
2021/06/12 03:06:54;;;;;;;19.80;4.38;;;;;;;;;;5025668;28;19921;-51
2021/06/12 03:09:24;;;;;;;16.73;4.60;;;;;;;;;;5028765;28;20029;-53
2021/06/12 03:11:53;;;;;;;23.58;4.70;;;;;;;;;;5026186;28;20037;-55
2021/06/12 03:14:22;;;;;;;19.30;4.68;;;;;;;;;;5027646;28;20041;-55
2021/06/12 03:16:50;;;;;;;16.48;4.00;;;;;;;;;;5022334;28;20121;-52
2021/06/12 03:19:17;;;;;;;24.50;5.00;;;;;;;;;;5028578;28;20057;-55
2021/06/12 03:21:47;;;;;;;23.13;5.05;;;;;;;;;;5027227;28;20052;-52
2021/06/12 03:24:14;;;;;;;18.40;4.55;;;;;;;;;;5028506;28;20034;-54
2021/06/12 03:26:41;;;;;;;24.65;4.95;;;;;;;;;;5027556;28;20052;-51
2021/06/12 03:29:13;;;;;;;22.65;4.93;;;;;;;;;;5026317;28;20029;-50
2021/06/12 03:31:40;;;;;;;14.50;4.35;;;;;;;;;;5028788;28;20152;-56
2021/06/12 03:34:07;;;;;;;27.00;5.35;;;;;;;;;;5028985;28;20037;-55
2021/06/12 03:36:34;;;;;;;25.67;5.47;;;;;;;;;;5022487;28;20084;-52
2021/06/12 03:39:00;;;;;;;26.73;5.03;;;;;;;;;;5023424;28;20043;-53
2021/06/12 03:41:27;;;;;;;20.70;4.97;;;;;;;;;;5025915;28;20393;-55
2021/06/12 03:43:55;;;;;;;25.48;5.15;;;;;;;;;;5020038;28;20042;-54
2021/06/12 03:46:23;;;;;;;26.92;4.72;;;;;;;;;;5024435;28;20477;-52
2021/06/12 03:48:50;;;;;;;24.30;5.50;;;;;;;;;;5021735;28;20057;-55
2021/06/12 03:51:19;;;;;;;34.15;6.20;;;;;;;;;;5024404;28;20045;-51
2021/06/12 03:53:47;;;;;;;25.05;6.35;;;;;;;;;;5024887;28;20049;-56
2021/06/12 03:56:16;;;;;;;20.20;5.32;;;;;;;;;;5026610;28;20072;-54
2021/06/12 03:58:44;;;;;;;23.00;5.70;;;;;;;;;;5021413;28;20504;-53
2021/06/12 04:01:12;;;;;;;25.98;5.28;;;;;;;;;;5022685;28;20084;-53
2021/06/12 04:03:40;;;;;;;24.20;5.32;;;;;;;;;;5025700;28;20141;-55
2021/06/12 04:06:07;;;;;;;;;;;;;;;;;;5025796;28;20444;-55
2021/06/12 04:08:35;;;;;;;26.55;5.95;;;;;;;;;;5022715;28;20384;-54
2021/06/12 04:11:03;;;;;;;17.23;4.80;;;;;;;;;;5024760;28;20049;-53
2021/06/12 04:13:29;;;;;;;26.60;6.05;;;;;;;;;;5023026;28;20030;-54
2021/06/12 04:15:57;;;;;;;24.02;5.78;;;;;;;;;;5022225;28;20046;-55
2021/06/12 04:18:24;;;;;;;23.13;5.30;;;;;;;;;;5024368;28;20050;-54
2021/06/12 04:20:51;;;;;;;36.38;6.60;;;;;;;;;;5023390;28;20590;-56
2021/06/12 04:23:21;;;;;;;37.30;6.45;;;;;;;;;;5021736;28;20046;-52
2021/06/12 04:25:48;;;;;;;30.13;6.20;;;;;;;;;;5022484;28;20052;-56
2021/06/12 04:28:14;;;;;;;30.20;5.68;;;;;;;;;;5023762;28;20042;-55
2021/06/12 04:30:42;;;;;;;28.15;5.43;;;;;;;;;;5018958;28;20034;-55
2021/06/12 04:33:09;;;;;;;18.60;5.10;;;;;;;;;;5018971;28;20572;-55
2021/06/12 04:35:37;;;;;;;23.50;5.97;;;;;;;;;;5023210;28;20510;-53
2021/06/12 04:38:09;;;;;;;22.33;5.60;;;;;;;;;;5022141;28;20417;-53
2021/06/12 04:40:36;;;;;;;26.35;6.05;;;;;;;;;;5022828;28;20045;-54
2021/06/12 04:43:08;;;;;;;25.02;6.40;;;;;;;;;;5021924;28;20056;-53
2021/06/12 04:45:35;;;;;;;17.92;4.68;;;;;;;;;;5022963;28;20457;-49
2021/06/12 04:48:03;;;;;;;34.05;6.45;;;;;;;;;;5021725;28;20091;-55
2021/06/12 04:50:34;;;;;;;30.25;6.32;;;;;;;;;;5024471;28;20049;-54
2021/06/12 04:53:02;;;;;;;29.98;6.35;;;;;;;;;;5020207;28;20517;-52
2021/06/12 04:55:29;;;;;;;20.35;5.45;;;;;;;;;;5023650;28;20144;-53
2021/06/12 04:57:55;;;;;;;28.40;6.10;;;;;;;;;;5018119;28;20046;-53
2021/06/12 05:00:23;;;;;;;36.58;7.40;;;;;;;;;;5026949;28;20486;-50
2021/06/12 05:02:52;;;;;;;27.40;5.85;;;;;;;;;;5025347;28;20049;-54
2021/06/12 05:05:19;;;;;;;34.35;7.28;;;;;;;;;;5022319;28;20072;-50
2021/06/12 05:07:51;;;;;;;40.28;7.55;;;;;;;;;;5023488;28;20053;-52
2021/06/12 05:10:23;;;;;;;33.53;6.60;;;;;;;;;;5021816;28;20125;-54
2021/06/12 05:12:50;;;;;;;31.67;6.82;;;;;;;;;;5024854;28;20515;-54
2021/06/12 05:15:20;;;;;;;21.10;5.68;;;;;;;;;;5024518;28;20056;-56
2021/06/12 05:17:48;;;;;;;28.58;6.57;;;;;;;;;;5026538;28;20551;-53
2021/06/12 05:20:15;;;;;;;32.53;6.50;;;;;;;;;;5023673;28;20128;-51
2021/06/12 05:22:42;;;;;;;20.85;6.88;;;;;;;;;;5022302;28;20061;-53
2021/06/12 05:25:10;;;;;;;31.23;7.03;;;;;;;;;;5024487;28;20136;-54
2021/06/12 05:27:43;;;;;;;28.00;6.47;;;;;;;;;;5026432;28;20445;-54
2021/06/12 05:30:11;;;;;;;32.40;7.57;;;;;;;;;;5024763;28;20059;-55
2021/06/12 05:32:38;;;;;;;28.80;6.57;;;;;;;;;;5025069;28;20030;-52
2021/06/12 05:35:06;;;;;;;34.97;7.00;;;;;;;;;;5025162;28;20045;-54
2021/06/12 05:37:34;;;;;;;28.42;6.85;;;;;;;;;;5017390;28;20439;-56
2021/06/12 05:40:02;;;;;;;28.10;6.43;;;;;;;;;;5018929;28;20509;-53
2021/06/12 05:42:29;;;;;;;27.00;7.40;;;;;;;;;;5019985;28;20077;-52
2021/06/12 05:44:56;;;;;;;25.85;6.53;;;;;;;;;;5024266;28;20033;-55
2021/06/12 05:47:28;;;;;;;27.77;6.30;;;;;;;;;;5023071;28;20060;-55
2021/06/12 05:49:54;;;;;;;21.20;6.30;;;;;;;;;;5020998;28;20125;-51
2021/06/12 05:52:21;;;;;;;23.80;6.40;;;;;;;;;;5024535;28;20111;-49
2021/06/12 05:54:48;;;;;;;27.98;6.70;;;;;;;;;;5024043;28;20046;-54
2021/06/12 05:57:14;;;;;;;25.35;7.10;;;;;;;;;;5019448;28;20037;-54
2021/06/12 05:59:41;;;;;;;26.45;6.53;;;;;;;;;;5020544;28;20038;-52
2021/06/12 06:02:08;;;;;;;23.63;5.70;;;;;;;;;;5027470;28;20041;-54
2021/06/12 06:04:40;;;;;;;27.83;7.00;;;;;;;;;;5026304;28;20033;-52
2021/06/12 06:07:07;;;;;;;26.73;7.43;;;;;;;;;;5024309;28;20045;-54
2021/06/12 06:09:33;;;;;;;18.93;6.00;;;;;;;;;;5025877;28;20030;-54
2021/06/12 06:12:00;;;;;;;19.00;6.35;;;;;;;;;;5025954;28;20092;-52
2021/06/12 06:14:27;;;;;;;30.45;6.43;;;;;;;;;;5022296;28;20046;-54
2021/06/12 06:16:55;;;;;;;;;;;;;;;;;;5024284;28;20124;-50
2021/06/12 06:19:22;;;;;;;27.08;6.03;;;;;;;;;;5022605;28;20426;-56
2021/06/12 06:21:48;;;;;;;24.83;5.80;;;;;;;;;;5023806;28;20048;-54
2021/06/12 06:24:15;;;;;;;16.98;5.70;;;;;;;;;;5027708;28;20055;-56
2021/06/12 06:26:42;;;;;;;20.92;5.65;;;;;;;;;;5027325;28;20050;-56
2021/06/12 06:29:10;;;;;;;15.80;4.78;;;;;;;;;;5027752;28;20048;-55
2021/06/12 06:31:37;;;;;;;19.75;4.70;;;;;;;;;;5023511;28;20049;-55
2021/06/12 06:34:04;;;;;;;21.08;5.70;;;;;;;;;;5031063;28;20437;-55
2021/06/12 06:36:31;;;;;;;24.73;5.75;;;;;;;;;;5030654;28;20038;-55
2021/06/12 06:39:00;;;;;;;19.48;5.60;;;;;;;;;;5022142;28;20092;-56
2021/06/12 06:41:27;;;;;;;15.57;4.97;;;;;;;;;;5025491;28;20404;-54
2021/06/12 06:43:53;;;;;;;16.45;4.68;;;;;;;;;;5020300;28;20054;-55
2021/06/12 06:46:22;;;;;;;20.40;4.85;;;;;;;;;;5027486;28;20125;-56
2021/06/12 06:48:48;;;;;;;15.18;5.22;;;;;;;;;;5022199;28;20053;-56
2021/06/12 06:51:15;;;;;;;14.70;4.40;;;;;;;;;;5023310;28;20034;-54
2021/06/12 06:53:42;;;;;;;25.27;4.87;;;;;;;;;;5025236;28;20045;-56
2021/06/12 06:56:09;;;;;;;16.77;4.88;;;;;;;;;;5025289;28;20091;-56
2021/06/12 06:58:35;;;;;;;13.10;4.40;;;;;;;;;;5030347;28;20123;-55
2021/06/12 07:01:07;;;;;;;24.17;4.70;;;;;;;;;;5028281;28;20041;-56
2021/06/12 07:03:33;;;;;;;16.85;4.68;;;;;;;;;;5028267;28;21121;-51
2021/06/12 07:06:00;;;;;;;14.50;3.95;;;;;;;;;;5028046;28;20033;-56
2021/06/12 07:08:39;;;;;;;16.30;4.00;;;;;;;;;;5024269;28;20037;-55
2021/06/12 07:11:05;;;;;;;23.75;4.18;;;;;;;;;;5029448;28;20042;-56
2021/06/12 07:13:34;;;;;;;15.13;3.55;;;;;;;;;;5029175;28;20037;-57
2021/06/12 07:16:01;;;;;;;14.13;3.92;;;;;;;;;;5026595;28;20633;-56
2021/06/12 07:18:27;;;;;;;16.40;4.38;;;;;;;;;;5025716;28;20107;-51
2021/06/12 07:20:54;;;;;;;16.55;4.28;;;;;;;;;;5026840;28;20056;-56
2021/06/12 07:23:21;;;;;;;;;;;;;;;;;;5025081;28;20136;-57
2021/06/12 07:25:48;;;;;;;15.07;4.30;;;;;;;;;;5026514;28;19931;-56
2021/06/12 07:28:15;;;;;;;11.50;3.30;;;;;;;;;;5023806;28;20045;-56
2021/06/12 07:30:42;;;;;;;11.00;3.33;;;;;;;;;;5028086;28;20487;-55
2021/06/12 07:33:16;;;;;;;15.60;3.38;;;;;;;;;;5025265;28;20049;-58
2021/06/12 07:35:43;;;;;;;7.57;2.60;;;;;;;;;;5022762;28;20080;-56
2021/06/12 07:38:16;;;;;;;10.98;3.00;;;;;;;;;;5025251;28;20057;-57
2021/06/12 07:40:45;;;;;;;13.20;3.78;;;;;;;;;;5023682;28;20029;-53
2021/06/12 07:43:14;;;;;;;11.60;3.37;;;;;;;;;;5028388;28;20091;-56
2021/06/12 07:45:40;;;;;;;11.82;2.83;;;;;;;;;;5024755;28;20041;-56
2021/06/12 07:48:08;;;;;;;9.93;2.57;;;;;;;;;;5026106;28;20042;-55
2021/06/12 07:50:35;;;;;;;10.57;3.25;;;;;;;;;;5027434;28;20523;-57
2021/06/12 07:53:01;;;;;;;10.33;2.63;;;;;;;;;;5025396;28;20084;-56
2021/06/12 07:55:29;;;;;;;13.18;2.88;;;;;;;;;;5026040;28;20041;-55
2021/06/12 07:57:57;;;;;;;6.80;2.20;;;;;;;;;;5022701;28;20064;-57
2021/06/12 08:00:25;;;;;;;10.57;3.10;;;;;;;;;;5026567;28;20041;-56
2021/06/12 08:02:52;;;;;;;;;;;;;;;;;;5026583;28;20143;-56
2021/06/12 08:05:20;;;;;;;9.30;2.05;;;;;;;;;;5019443;28;19924;-58
2021/06/12 08:07:47;;;;;;;8.07;2.60;;;;;;;;;;5023173;28;20132;-58
2021/06/12 08:10:15;;;;;;;11.30;2.72;;;;;;;;;;5024913;28;20299;-57
2021/06/12 08:12:41;;;;;;;7.90;2.10;;;;;;;;;;5024841;28;20030;-58
2021/06/12 08:15:10;;;;;;;6.75;2.22;;;;;;;;;;5024562;28;20296;-58
2021/06/12 08:17:38;;;;;;;10.57;2.63;;;;;;;;;;5026811;28;20046;-58
2021/06/12 08:20:07;;;;;;;6.88;1.92;;;;;;;;;;5021341;28;20080;-58
2021/06/12 08:22:34;;;;;;;8.68;2.38;;;;;;;;;;5019702;28;20053;-56
2021/06/12 08:25:02;;;;;;;15.95;2.83;;;;;;;;;;5016879;28;20046;-59
2021/06/12 08:27:29;;;;;;;7.97;2.40;;;;;;;;;;5018240;28;20528;-58
2021/06/12 08:29:58;;;;;;;12.68;2.35;;;;;;;;;;5023233;28;20053;-58
2021/06/12 08:32:25;;;;;;;8.65;2.63;;;;;;;;;;5022766;28;20633;-58
2021/06/12 08:34:53;;;;;;;11.95;2.40;;;;;;;;;;5031095;28;20144;-59
2021/06/12 08:37:21;;;;;;;8.73;2.47;;;;;;;;;;5026381;28;20056;-58
2021/06/12 08:39:51;;;;;;;10.35;2.63;;;;;;;;;;5019977;28;20160;-58
2021/06/12 08:42:18;;;;;;;9.48;1.80;;;;;;;;;;5024092;28;20056;-57
2021/06/12 08:44:47;;;;;;;5.78;2.25;;;;;;;;;;5023392;28;20041;-58
2021/06/12 08:47:14;;;;;;;8.52;2.00;;;;;;;;;;5024147;28;20125;-58
2021/06/12 08:49:41;;;;;;;10.77;2.05;;;;;;;;;;5027904;28;20051;-57
2021/06/12 08:52:08;;;;;;;8.30;2.23;;;;;;;;;;5022643;28;20041;-57
2021/06/12 08:54:35;;;;;;;8.70;2.47;;;;;;;;;;5024747;28;20115;-58
2021/06/12 08:57:01;;;;;;;5.43;2.22;;;;;;;;;;5022150;28;20288;-58
2021/06/12 08:59:34;;;;;;;9.27;2.00;;;;;;;;;;5027700;28;20168;-57
2021/06/12 09:02:01;;;;;;;10.75;2.20;;;;;;;;;;5025895;28;20041;-56
2021/06/12 09:04:30;;;;;;;9.55;2.05;;;;;;;;;;5023744;28;20041;-58
2021/06/12 09:07:18;;;;;;;12.77;2.35;;;;;;;;;;5025818;28;20045;-59
2021/06/12 09:09:52;;;;;;;8.40;2.20;;;;;;;;;;5021765;28;20038;-59
2021/06/12 09:12:20;;;;;;;9.45;2.35;;;;;;;;;;5021399;28;20398;-59
2021/06/12 09:15:07;;;;;;;11.60;2.50;;;;;;;;;;5029425;28;20045;-59
2021/06/12 09:17:52;;;;;;;5.82;2.08;;;;;;;;;;5017469;28;20100;-59
2021/06/12 09:20:28;;;;;;;11.23;2.15;;;;;;;;;;5022580;28;20057;-58
2021/06/12 09:23:13;;;;;;;8.90;2.17;;;;;;;;;;5021882;28;20087;-59
2021/06/12 09:25:42;;;;;;;11.43;2.10;;;;;;;;;;5022646;28;20412;-59
2021/06/12 09:28:09;;;;;;;11.70;2.20;;;;;;;;;;5023816;28;20485;-58
2021/06/12 09:30:36;;;;;;;10.68;2.45;;;;;;;;;;5020569;28;20524;-59
2021/06/12 09:33:03;;;;;;;12.88;2.65;;;;;;;;;;5025031;28;20046;-59
2021/06/12 09:35:33;;;;;;;10.50;2.03;;;;;;;;;;5022329;28;20397;-60
2021/06/12 09:38:00;;;;;;;6.20;2.10;;;;;;;;;;5024592;28;20052;-58
2021/06/12 09:40:31;;;;;;;13.50;2.38;;;;;;;;;;5022453;28;20487;-57
2021/06/12 09:43:01;;;;;;;10.05;2.63;;;;;;;;;;5019647;28;20506;-57
2021/06/12 09:45:32;;;;;;;12.38;2.17;;;;;;;;;;5023471;28;20498;-58
2021/06/12 09:48:06;;;;;;;9.32;2.17;;;;;;;;;;5026442;28;20069;-57
2021/06/12 09:50:34;;;;;;;9.32;2.30;;;;;;;;;;5020208;28;20053;-57
2021/06/12 09:53:01;;;;;;;;;;;;;;;;;;5023208;28;20052;-58
2021/06/12 09:55:29;;;;;;;7.13;2.30;;;;;;;;;;5023746;28;19987;-57
2021/06/12 09:57:56;;;;;;;11.63;2.28;;;;;;;;;;5023686;28;20042;-58
2021/06/12 10:00:28;;;;;;;8.20;2.13;;;;;;;;;;5025286;28;20053;-57
2021/06/12 10:02:56;;;;;;;7.80;2.20;;;;;;;;;;5026161;28;20043;-55
2021/06/12 10:05:23;;;;;;;6.65;2.20;;;;;;;;;;5024688;28;20087;-57
2021/06/12 10:07:51;;;;;;;9.07;2.30;;;;;;;;;;5031316;28;20044;-57
2021/06/12 10:10:19;;;;;;;8.15;1.92;;;;;;;;;;5029152;28;20540;-57
2021/06/12 10:12:48;;;;;;;11.00;2.63;;;;;;;;;;5025725;28;20495;-58
2021/06/12 10:15:17;;;;;;;10.48;2.33;;;;;;;;;;5025933;28;20084;-57
2021/06/12 10:17:43;;;;;;;;;;;;;;;;;;5029695;28;20041;-58
2021/06/12 10:20:12;;;;;;;9.75;2.08;;;;;;;;;;5023920;28;19979;-57
2021/06/12 10:22:43;;;;;;;10.73;2.15;;;;;;;;;;5029409;28;20060;-57
2021/06/12 10:25:16;;;;;;;9.23;2.30;;;;;;;;;;5024800;28;20116;-58
2021/06/12 10:27:44;;;;;;;7.07;2.03;;;;;;;;;;5024354;28;20053;-57
2021/06/12 10:30:12;;;;;;;7.93;1.92;;;;;;;;;;5024683;28;20038;-57
2021/06/12 10:32:46;;;;;;;5.18;1.83;;;;;;;;;;5027756;28;20056;-57
2021/06/12 10:35:18;;;;;;;8.10;1.55;;;;;;;;;;5030221;28;20045;-57
2021/06/12 10:37:55;;;;;;;5.40;1.70;;;;;;;;;;5027566;28;20485;-58
2021/06/12 10:40:35;;;;;;;5.88;1.80;;;;;;;;;;5025737;28;20038;-58
2021/06/12 10:43:05;;;;;;;14.55;2.10;;;;;;;;;;5024642;28;20518;-58
2021/06/12 10:45:39;;;;;;;9.05;1.83;;;;;;;;;;5028031;28;20073;-58
2021/06/12 10:48:06;;;;;;;9.48;2.03;;;;;;;;;;5027865;28;20052;-58
2021/06/12 10:50:34;;;;;;;11.38;1.80;;;;;;;;;;5025235;28;20041;-58
2021/06/12 10:53:21;;;;;;;9.30;1.80;;;;;;;;;;5027805;28;20548;-58
2021/06/12 10:55:52;;;;;;;9.68;2.00;;;;;;;;;;5027520;28;20033;-58
2021/06/12 10:58:28;;;;;;;32.67;9.80;;;;;;;;;;5023475;28;20057;-58
2021/06/12 11:01:08;;;;;;;10.48;2.55;;;;;;;;;;5024302;28;20066;-57
2021/06/12 11:03:42;;;;;;;12.45;2.50;;;;;;;;;;5036739;28;20540;-58
2021/06/12 11:09:17;;;;;;;6.70;2.17;;;;;;;;;;5023918;28;20041;-58
2021/06/12 11:11:52;;;;;;;14.40;3.63;;;;;;;;;;5017843;28;20038;-58
2021/06/12 11:14:22;;;;;;;9.13;2.20;;;;;;;;;;5019381;28;20049;-58
2021/06/12 11:17:09;;;;;;;6.72;2.45;;;;;;;;;;5022486;28;20143;-57
2021/06/12 11:19:50;;;;;;;5.43;2.03;;;;;;;;;;5020690;28;20520;-58
2021/06/12 11:22:32;;;;;;;6.30;2.25;;;;;;;;;;5026833;28;20049;-58
2021/06/12 11:25:01;;;;;;;5.43;2.22;;;;;;;;;;5027366;28;20037;-57
2021/06/12 11:27:34;;;;;;;8.10;2.30;;;;;;;;;;5022577;28;20342;-58
2021/06/12 11:30:14;;;;;;;6.25;2.20;;;;;;;;;;5026290;28;20541;-58
2021/06/12 11:32:58;;;;;;;5.30;2.28;;;;;;;;;;5022227;28;20041;-57
2021/06/12 11:35:41;;;;;;;6.65;2.35;;;;;;;;;;5019683;28;20505;-58
2021/06/12 11:38:08;;;;;;;7.15;2.42;;;;;;;;;;5026919;28;20571;-58
2021/06/12 11:40:35;;;;;;;4.85;1.98;;;;;;;;;;5026548;28;20083;-59
2021/06/12 11:43:02;;;;;;;3.65;2.22;;;;;;;;;;5022863;28;20120;-58
2021/06/12 11:45:33;;;;;;;9.93;2.47;;;;;;;;;;5026755;28;20049;-58
2021/06/12 11:48:15;;;;;;;6.60;2.50;;;;;;;;;;5028773;28;20513;-58
2021/06/12 11:50:41;;;;;;;6.10;2.88;;;;;;;;;;5028309;28;20444;-59
2021/06/12 11:53:09;;;;;;;;;;;;;;;;;;5025936;28;20420;-59
2021/06/12 11:55:39;;;;;;;8.25;2.88;;;;;;;;;;5026125;28;19925;-59
2021/06/12 11:58:06;;;;;;;13.07;3.45;;;;;;;;;;5027659;28;20087;-58
2021/06/12 12:00:35;;;;;;;5.82;2.92;;;;;;;;;;5029254;28;20045;-58
2021/06/12 12:03:03;;;;;;;11.68;3.20;;;;;;;;;;5024281;28;20069;-57
2021/06/12 12:05:32;;;;;;;8.90;3.42;;;;;;;;;;5029259;28;20056;-58
2021/06/12 12:08:02;;;;;;;8.50;3.00;;;;;;;;;;5025541;28;20116;-57
2021/06/12 12:10:29;;;;;;;7.35;3.20;;;;;;;;;;5029805;28;20501;-59
2021/06/12 12:12:56;;;;;;;11.65;3.03;;;;;;;;;;5024853;28;20037;-58
2021/06/12 12:15:43;;;;;;;8.10;2.80;;;;;;;;;;5026024;28;20046;-58
2021/06/12 12:18:11;;;;;;;8.20;3.47;;;;;;;;;;5027304;28;20493;-57
2021/06/12 12:20:48;;;;;;;5.85;3.35;;;;;;;;;;5027019;28;20043;-59
2021/06/12 12:23:15;;;;;;;;;;;;;;;;;;5025515;28;20065;-59
2021/06/12 12:25:43;;;;;;;8.35;3.03;;;;;;;;;;5026884;28;20024;-58
2021/06/12 12:28:13;;;;;;;6.28;3.25;;;;;;;;;;5025836;28;20033;-58
2021/06/12 12:30:42;;;;;;;6.15;3.13;;;;;;;;;;5024735;28;20383;-58
2021/06/12 12:33:12;;;;;;;6.13;3.28;;;;;;;;;;5022446;28;20065;-57
2021/06/12 12:35:39;;;;;;;8.00;3.40;;;;;;;;;;5022314;28;20059;-59
2021/06/12 12:38:15;;;;;;;8.05;3.30;;;;;;;;;;5030041;28;20069;-58
2021/06/12 12:40:43;;;;;;;7.93;3.38;;;;;;;;;;5026408;28;20394;-58
2021/06/12 12:43:11;;;;;;;10.05;3.88;;;;;;;;;;5023469;28;20037;-59
2021/06/12 12:45:42;;;;;;;5.43;3.15;;;;;;;;;;5028168;28;20065;-58
2021/06/12 12:48:09;;;;;;;9.40;2.97;;;;;;;;;;5026016;28;20091;-59
2021/06/12 12:50:36;;;;;;;8.98;3.17;;;;;;;;;;5022956;28;20041;-58
2021/06/12 12:53:03;;;;;;;8.30;3.45;;;;;;;;;;5024480;28;20048;-54
2021/06/12 12:55:31;;;;;;;7.03;3.63;;;;;;;;;;5023791;28;20041;-59
2021/06/12 12:57:58;;;;;;;8.20;3.42;;;;;;;;;;5025137;28;20054;-58
2021/06/12 13:00:25;;;;;;;7.43;3.72;;;;;;;;;;5022459;28;20038;-58
2021/06/12 13:02:53;;;;;;;5.63;3.40;;;;;;;;;;5025234;28;20079;-58
2021/06/12 13:05:20;;;;;;;7.22;3.50;;;;;;;;;;5018281;28;20097;-58
2021/06/12 13:07:56;;;;;;;6.03;3.20;;;;;;;;;;5021874;28;20504;-59
2021/06/12 13:10:29;;;;;;;7.67;3.50;;;;;;;;;;5027140;28;20071;-56
2021/06/12 13:12:57;;;;;;;9.52;3.40;;;;;;;;;;5024911;28;20092;-59
2021/06/12 13:15:25;;;;;;;8.07;3.70;;;;;;;;;;5023260;28;20045;-58
2021/06/12 13:18:02;;;;;;;7.03;3.15;;;;;;;;;;5022424;28;20052;-59
2021/06/12 13:20:29;;;;;;;7.80;3.78;;;;;;;;;;5024227;28;20049;-58
2021/06/12 13:22:56;;;;;;;5.37;3.37;;;;;;;;;;5023127;28;20052;-58
2021/06/12 13:25:23;;;;;;;7.90;3.03;;;;;;;;;;5028332;28;20045;-59
2021/06/12 13:27:50;;;;;;;;;;;;;;;;;;5025031;28;20038;-59
2021/06/12 13:30:17;;;;;;;5.82;3.20;;;;;;;;;;5026529;28;19925;-59
2021/06/12 13:32:47;;;;;;;8.05;3.85;;;;;;;;;;5024145;28;20112;-59
2021/06/12 13:35:20;;;;;;;6.47;3.20;;;;;;;;;;5024880;28;20120;-59
2021/06/12 13:38:05;;;;;;;6.38;3.80;;;;;;;;;;5019813;28;20145;-58
2021/06/12 13:40:33;;;;;;;10.23;3.30;;;;;;;;;;5024773;28;20033;-59
2021/06/12 13:43:00;;;;;;;6.05;3.50;;;;;;;;;;5022498;28;20056;-59
2021/06/12 13:45:27;;;;;;;9.75;3.75;;;;;;;;;;5025346;28;20052;-58
2021/06/12 13:48:00;;;;;;;6.05;3.35;;;;;;;;;;5022674;28;20068;-59
2021/06/12 13:50:27;;;;;;;10.98;3.65;;;;;;;;;;5021911;28;20367;-59
2021/06/12 13:52:53;;;;;;;10.70;3.63;;;;;;;;;;5024641;28;20111;-58
2021/06/12 13:55:25;;;;;;;5.90;3.40;;;;;;;;;;5004142;28;20296;-59
2021/06/12 13:57:52;;;;;;;9.35;3.60;;;;;;;;;;5002124;28;20049;-59
2021/06/12 14:00:26;;;;;;;7.25;3.25;;;;;;;;;;5003639;28;20709;-58
2021/06/12 14:02:52;;;;;;;8.37;3.70;;;;;;;;;;5004938;28;20561;-58
2021/06/12 14:05:19;;;;;;;6.07;3.55;;;;;;;;;;5004916;28;20263;-59
2021/06/12 14:07:45;;;;;;;8.30;3.80;;;;;;;;;;4996886;28;20049;-58
2021/06/12 14:10:12;;;;;;;12.00;4.28;;;;;;;;;;5008165;28;20048;-58
2021/06/12 14:12:40;;;;;;;7.72;3.70;;;;;;;;;;5005909;28;20076;-59
2021/06/12 14:15:07;;;;;;;5.63;3.50;;;;;;;;;;5003039;28;20050;-58
2021/06/12 14:17:34;;;;;;;10.63;3.45;;;;;;;;;;5007642;28;20064;-59
2021/06/12 14:20:04;;;;;;;4.18;2.90;;;;;;;;;;5000334;28;20104;-59
2021/06/12 14:22:30;;;;;;;5.90;3.22;;;;;;;;;;5002765;28;20042;-59
2021/06/12 14:25:04;;;;;;;5.10;3.33;;;;;;;;;;5001985;28;20086;-59
2021/06/12 14:27:31;;;;;;;4.00;3.13;;;;;;;;;;5003660;28;20050;-59
2021/06/12 14:30:00;;;;;;;6.38;3.35;;;;;;;;;;5004547;28;20061;-59
2021/06/12 14:32:27;;;;;;;8.65;3.30;;;;;;;;;;4999730;28;20052;-59
2021/06/12 14:34:55;;;;;;;5.47;3.53;;;;;;;;;;5002988;28;20121;-59
2021/06/12 14:37:21;;;;;;;8.88;3.30;;;;;;;;;;5006728;28;20052;-59
2021/06/12 14:39:48;;;;;;;8.13;3.58;;;;;;;;;;5003304;28;20053;-58
2021/06/12 14:42:16;;;;;;;12.77;3.00;;;;;;;;;;4999867;28;20466;-59
2021/06/12 14:44:45;;;;;;;6.03;3.50;;;;;;;;;;5006257;28;20046;-59
2021/06/12 14:47:12;;;;;;;5.50;3.10;;;;;;;;;;5003409;28;20042;-59
2021/06/12 14:49:44;;;;;;;7.00;3.40;;;;;;;;;;5002598;28;20120;-59
2021/06/12 14:52:11;;;;;;;5.40;3.10;;;;;;;;;;5004131;28;20042;-59